Alexandria, Egypt
Current Conditions -  °F | °C
As of 4:00 PM on Thursday 30 Oct 2014 (Local Time) from HEAX Reporting Station
Scattered Clouds Scattered Clouds  
Wind Chill: 73°   Ceiling: Unl
Heat Index: 73°   Visibility: 6mi
Dew Point: 61°   Wind: 13mph
Humidity: 65%   Direction: 310°NW
Pressure: 29.97"   Gusts: NA
Location:  31.22°N, 29.95°E
Report Text: HEAX 301400Z 31011KT 9999 SCT020 23/16 Q1015 NOSIG
Loading
Personal Weather Stations






























Interactive Weather Map
Tropical Storm Tracking
New forecast layout! Learn more

10-Day Weather Forecast

Advertisements
Track Severe Weather on mobile